Time;durP1;ratioP1;P1;durP2;ratioP2;P2;SDS_P1;SDS_P2;PMS_P1;PMS_P2;Temp;Humidity;BMP_temperature;BMP_pressure;BME280_temperature;BME280_humidity;BME280_pressure;Samples;Min_cycle;Max_cycle;Signal;HPM_P1;HPM_P2
2023/01/03 00:01:36;;;;;;;4.68;3.05;;;;;;;;;;5075479;28;20041;-89
2023/01/03 00:04:04;;;;;;;4.05;3.70;;;;;;;;;;5075671;28;20131;-90
2023/01/03 00:06:31;;;;;;;3.33;3.15;;;;;;;;;;5075729;28;20131;-90
2023/01/03 00:08:59;;;;;;;4.50;4.20;;;;;;;;;;5075651;28;20052;-89
2023/01/03 00:14:09;;;;;;;4.10;3.55;;;;;;;;;;5074166;28;20153;-89
2023/01/03 00:16:36;;;;;;;7.53;5.13;;;;;;;;;;5075123;28;20054;-90
2023/01/03 00:19:05;;;;;;;2.88;2.55;;;;;;;;;;5075518;28;20049;-91
2023/01/03 00:21:32;;;;;;;4.50;4.20;;;;;;;;;;5075114;28;20097;-90
2023/01/03 00:23:58;;;;;;;5.15;4.85;;;;;;;;;;5075174;28;20098;-90
2023/01/03 00:26:25;;;;;;;4.03;3.70;;;;;;;;;;5075088;28;20452;-90
2023/01/03 00:28:51;;;;;;;1.85;1.75;;;;;;;;;;5075319;28;20057;-90
2023/01/03 00:31:19;;;;;;;2.95;2.75;;;;;;;;;;5073615;28;20114;-90
2023/01/03 00:33:45;;;;;;;3.28;3.08;;;;;;;;;;5074988;28;20060;-90
2023/01/03 00:36:12;;;;;;;5.60;4.93;;;;;;;;;;5074858;28;20432;-90
2023/01/03 00:38:38;;;;;;;3.00;2.83;;;;;;;;;;5075259;28;20048;-90
2023/01/03 00:41:05;;;;;;;6.20;5.65;;;;;;;;;;5074799;28;20490;-90
2023/01/03 00:43:32;;;;;;;3.95;3.65;;;;;;;;;;5074846;28;20049;-90
2023/01/03 00:45:59;;;;;;;3.55;3.25;;;;;;;;;;5074980;28;20049;-90
2023/01/03 00:48:27;;;;;;;5.45;3.47;;;;;;;;;;5074886;28;20102;-89
2023/01/03 00:50:53;;;;;;;5.10;3.13;;;;;;;;;;5074909;28;20048;-90
2023/01/03 00:53:20;;;;;;;4.55;3.90;;;;;;;;;;5074664;28;20102;-89
2023/01/03 00:55:47;;;;;;;5.07;4.75;;;;;;;;;;5074744;28;20460;-89
2023/01/03 00:58:13;;;;;;;2.83;2.60;;;;;;;;;;5074206;28;20056;-89
2023/01/03 01:00:40;;;;;;;5.78;4.05;;;;;;;;;;5074662;28;20094;-90
2023/01/03 01:03:06;;;;;;;3.25;3.03;;;;;;;;;;5074630;28;20056;-90
2023/01/03 01:05:34;;;;;;;4.78;4.35;;;;;;;;;;5074439;28;20049;-89
2023/01/03 01:08:00;;;;;;;7.43;3.95;;;;;;;;;;5074379;28;20476;-89
2023/01/03 01:10:27;;;;;;;3.22;2.88;;;;;;;;;;5074471;28;20102;-89
2023/01/03 01:12:55;;;;;;;4.55;4.25;;;;;;;;;;5073766;28;20044;-89
2023/01/03 01:15:21;;;;;;;2.75;2.63;;;;;;;;;;5074274;28;20114;-89
2023/01/03 01:17:48;;;;;;;2.88;2.70;;;;;;;;;;5073766;28;20049;-89
2023/01/03 01:20:16;;;;;;;4.32;3.92;;;;;;;;;;5073739;28;20719;-89
2023/01/03 01:22:44;;;;;;;6.25;4.60;;;;;;;;;;5073776;28;20140;-89
2023/01/03 01:25:10;;;;;;;2.53;2.35;;;;;;;;;;5074169;28;20094;-89
2023/01/03 01:27:37;;;;;;;8.10;5.07;;;;;;;;;;5073530;28;20094;-89
2023/01/03 01:30:03;;;;;;;4.18;3.17;;;;;;;;;;5073837;28;20456;-89
2023/01/03 01:32:30;;;;;;;3.88;3.58;;;;;;;;;;5073285;28;20060;-89
2023/01/03 01:34:57;;;;;;;8.15;4.88;;;;;;;;;;5073590;28;20053;-90
2023/01/03 01:37:23;;;;;;;1.88;1.77;;;;;;;;;;5073641;28;20049;-89
2023/01/03 01:39:51;;;;;;;5.60;5.25;;;;;;;;;;5073726;28;20539;-89
2023/01/03 01:45:01;;;;;;;;;;;;;;;;;;5074091;28;20417;-89
2023/01/03 01:47:31;;;;;;;2.03;1.88;;;;;;;;;;5073701;28;19924;-90
2023/01/03 01:50:00;;;;;;;5.22;4.75;;;;;;;;;;5073237;28;20048;-89
2023/01/03 01:52:27;;;;;;;4.35;4.05;;;;;;;;;;5073320;28;20052;-89
2023/01/03 01:54:55;;;;;;;5.03;4.72;;;;;;;;;;5073470;28;20102;-89
2023/01/03 01:57:23;;;;;;;7.80;7.15;;;;;;;;;;5073115;28;20106;-89
2023/01/03 01:59:50;;;;;;;3.60;3.35;;;;;;;;;;5072968;28;20106;-89
2023/01/03 02:02:19;;;;;;;5.93;5.55;;;;;;;;;;5073312;28;20098;-89
2023/01/03 02:04:46;;;;;;;4.93;4.63;;;;;;;;;;5073351;28;20045;-89
2023/01/03 02:07:13;;;;;;;3.58;3.40;;;;;;;;;;5073215;28;20056;-88
2023/01/03 02:09:39;;;;;;;12.38;2.78;;;;;;;;;;5072768;28;20501;-89
2023/01/03 02:15:02;;;;;;;4.93;4.45;;;;;;;;;;5072998;28;20063;-89
2023/01/03 02:17:40;;;;;;;2.38;2.28;;;;;;;;;;5073509;28;20056;-89
2023/01/03 02:20:12;;;;;;;5.22;4.22;;;;;;;;;;5073017;28;20391;-89
2023/01/03 02:22:53;;;;;;;1.90;1.80;;;;;;;;;;5073147;28;20118;-89
2023/01/03 02:25:32;;;;;;;4.70;4.45;;;;;;;;;;5073011;28;20105;-89
2023/01/03 02:28:11;;;;;;;3.85;3.55;;;;;;;;;;5073033;28;20048;-89
2023/01/03 02:30:40;;;;;;;4.78;2.28;;;;;;;;;;5072996;28;20386;-89
2023/01/03 02:33:13;;;;;;;3.75;3.58;;;;;;;;;;5072584;28;20056;-89
2023/01/03 02:35:44;;;;;;;3.17;2.40;;;;;;;;;;5072911;28;20048;-90
2023/01/03 02:38:13;;;;;;;3.90;3.60;;;;;;;;;;5072641;28;20052;-89
2023/01/03 02:40:42;;;;;;;4.82;4.57;;;;;;;;;;5072900;28;20048;-89
2023/01/03 02:43:12;;;;;;;4.55;3.33;;;;;;;;;;5072445;28;20557;-89
2023/01/03 02:45:47;;;;;;;3.25;3.05;;;;;;;;;;5072905;28;20118;-89
2023/01/03 02:48:15;;;;;;;3.50;3.30;;;;;;;;;;5072785;28;20498;-89
2023/01/03 02:50:45;;;;;;;3.42;2.83;;;;;;;;;;5072660;28;20509;-89
2023/01/03 02:53:13;;;;;;;5.07;4.40;;;;;;;;;;5072646;28;20045;-90
2023/01/03 02:55:41;;;;;;;2.97;2.78;;;;;;;;;;5075380;28;20048;-89
2023/01/03 02:58:11;;;;;;;3.80;3.35;;;;;;;;;;5076780;28;20052;-89
2023/01/03 03:00:40;;;;;;;3.60;3.40;;;;;;;;;;5076868;28;20052;-89
2023/01/03 03:03:13;;;;;;;5.03;4.20;;;;;;;;;;5076732;28;20045;-89
2023/01/03 03:05:42;;;;;;;2.10;1.98;;;;;;;;;;5076363;28;20459;-89
2023/01/03 03:08:09;;;;;;;4.57;4.30;;;;;;;;;;5076283;28;20056;-89
2023/01/03 03:13:29;;;;;;;1.17;1.08;;;;;;;;;;5076388;28;20078;-90
2023/01/03 03:15:58;;;;;;;5.30;4.78;;;;;;;;;;5076517;28;20456;-89
2023/01/03 03:18:32;;;;;;;2.42;2.28;;;;;;;;;;5076342;28;20053;-89
2023/01/03 03:26:33;;;;;;;3.03;2.78;;;;;;;;;;5076045;28;20063;-89
2023/01/03 03:29:00;;;;;;;4.13;3.67;;;;;;;;;;5076298;28;20048;-89
2023/01/03 03:31:29;;;;;;;3.15;2.92;;;;;;;;;;5076022;28;20091;-89
2023/01/03 03:33:59;;;;;;;3.78;3.47;;;;;;;;;;5076067;28;20398;-89
2023/01/03 03:36:31;;;;;;;3.55;3.25;;;;;;;;;;5075921;28;20052;-89
2023/01/03 03:38:57;;;;;;;9.43;5.95;;;;;;;;;;5076177;28;20106;-90
2023/01/03 03:47:06;;;;;;;4.68;4.38;;;;;;;;;;5075789;28;20063;-89
2023/01/03 03:49:39;;;;;;;5.32;2.85;;;;;;;;;;5075687;28;20468;-90
2023/01/03 03:52:07;;;;;;;2.28;2.15;;;;;;;;;;5075799;28;20448;-89
2023/01/03 03:54:34;;;;;;;4.65;4.32;;;;;;;;;;5075832;28;20052;-89
2023/01/03 03:57:04;;;;;;;3.78;3.47;;;;;;;;;;5075664;28;20048;-89
2023/01/03 03:59:31;;;;;;;5.13;4.70;;;;;;;;;;5075795;28;20078;-89
2023/01/03 04:01:59;;;;;;;3.20;3.00;;;;;;;;;;5075683;28;20501;-89
2023/01/03 04:04:28;;;;;;;5.32;4.97;;;;;;;;;;5075683;28;20399;-90
2023/01/03 04:06:56;;;;;;;4.85;4.47;;;;;;;;;;5075189;28;20106;-90
2023/01/03 04:09:23;;;;;;;4.07;3.78;;;;;;;;;;5075754;28;20071;-90
2023/01/03 04:11:49;;;;;;;3.80;3.20;;;;;;;;;;5075486;28;20048;-90
2023/01/03 04:14:16;;;;;;;3.33;3.05;;;;;;;;;;5075634;28;20048;-90
2023/01/03 04:16:42;;;;;;;3.42;3.20;;;;;;;;;;5075341;28;20048;-90
2023/01/03 04:19:09;;;;;;;4.63;4.32;;;;;;;;;;5075358;28;20048;-90
2023/01/03 04:21:36;;;;;;;3.85;3.55;;;;;;;;;;5075014;28;20045;-90
2023/01/03 04:24:04;;;;;;;5.78;5.32;;;;;;;;;;5075465;28;20045;-90
2023/01/03 04:26:31;;;;;;;5.72;5.22;;;;;;;;;;5075388;28;20460;-90
2023/01/03 04:28:57;;;;;;;5.07;4.68;;;;;;;;;;5075395;28;20048;-90
2023/01/03 04:31:24;;;;;;;4.53;4.22;;;;;;;;;;5075342;28;20448;-90
2023/01/03 04:33:52;;;;;;;4.65;4.28;;;;;;;;;;5074948;28;20579;-90
2023/01/03 04:36:19;;;;;;;6.18;3.67;;;;;;;;;;5075213;28;20071;-90
2023/01/03 04:38:45;;;;;;;4.50;2.90;;;;;;;;;;5075154;28;20044;-90
2023/01/03 04:41:13;;;;;;;4.38;3.90;;;;;;;;;;5074686;28;20060;-90
2023/01/03 04:46:24;;;;;;;2.28;2.17;;;;;;;;;;5075062;28;20426;-90
2023/01/03 04:48:50;;;;;;;4.20;3.85;;;;;;;;;;5075056;28;20076;-90
2023/01/03 04:51:17;;;;;;;4.72;3.72;;;;;;;;;;5074863;28;20048;-90
2023/01/03 04:53:43;;;;;;;3.22;3.05;;;;;;;;;;5074755;28;20052;-89
2023/01/03 04:56:10;;;;;;;4.30;3.88;;;;;;;;;;5074522;28;20052;-90
2023/01/03 04:58:38;;;;;;;4.55;4.28;;;;;;;;;;5074490;28;20094;-90
2023/01/03 05:01:06;;;;;;;1.63;1.52;;;;;;;;;;5074631;28;20052;-90
2023/01/03 05:03:33;;;;;;;3.47;3.20;;;;;;;;;;5074367;28;20612;-89
2023/01/03 05:06:00;;;;;;;3.78;3.40;;;;;;;;;;5074876;28;20056;-90
2023/01/03 05:08:26;;;;;;;4.55;3.55;;;;;;;;;;5074743;28;20048;-89
2023/01/03 05:10:53;;;;;;;2.67;2.58;;;;;;;;;;5074414;28;20105;-90
2023/01/03 05:13:19;;;;;;;5.38;4.97;;;;;;;;;;5074371;28;20054;-90
2023/01/03 05:15:47;;;;;;;5.57;5.13;;;;;;;;;;5073990;28;20468;-89
2023/01/03 05:18:14;;;;;;;5.50;3.72;;;;;;;;;;5073044;28;20049;-89
2023/01/03 05:26:10;;;;;;;3.90;3.60;;;;;;;;;;5074064;28;20056;-89
2023/01/03 05:28:36;;;;;;;4.55;4.15;;;;;;;;;;5074305;28;20122;-89
2023/01/03 05:31:04;;;;;;;3.35;3.15;;;;;;;;;;5074019;28;20255;-89
2023/01/03 05:33:31;;;;;;;3.90;3.22;;;;;;;;;;5073455;28;20056;-89
2023/01/03 05:35:58;;;;;;;6.38;5.88;;;;;;;;;;5073536;28;20145;-89
2023/01/03 05:38:24;;;;;;;5.57;4.18;;;;;;;;;;5069452;28;20053;-89
2023/01/03 05:40:51;;;;;;;3.83;3.50;;;;;;;;;;5053845;28;20045;-89
2023/01/03 05:43:17;;;;;;;2.60;2.45;;;;;;;;;;5053701;28;20102;-90
2023/01/03 05:45:48;;;;;;;3.50;2.92;;;;;;;;;;5053506;28;20093;-89
2023/01/03 05:48:15;;;;;;;;;;;;;;;;;;5053985;28;20099;-90
2023/01/03 05:50:43;;;;;;;5.05;4.75;;;;;;;;;;5053437;28;20336;-90
2023/01/03 05:53:09;;;;;;;7.13;3.08;;;;;;;;;;5053433;28;20041;-90
2023/01/03 05:55:36;;;;;;;2.63;2.47;;;;;;;;;;5053693;28;20049;-90
2023/01/03 05:58:02;;;;;;;5.20;4.82;;;;;;;;;;5053203;28;20047;-90
2023/01/03 06:00:29;;;;;;;2.58;2.47;;;;;;;;;;5053651;28;20099;-90
2023/01/03 06:02:55;;;;;;;2.47;2.33;;;;;;;;;;5053480;28;20075;-90
2023/01/03 06:05:22;;;;;;;4.72;4.18;;;;;;;;;;5053149;28;20099;-90
2023/01/03 06:07:50;;;;;;;3.25;3.05;;;;;;;;;;5053572;28;20053;-90
2023/01/03 06:10:17;;;;;;;4.15;3.88;;;;;;;;;;5053218;28;20049;-90
2023/01/03 06:12:43;;;;;;;5.47;5.18;;;;;;;;;;5053513;28;20051;-90
2023/01/03 06:15:10;;;;;;;2.78;2.67;;;;;;;;;;5052732;28;20049;-90
2023/01/03 06:17:53;;;;;;;3.25;3.00;;;;;;;;;;5049887;28;20096;-92
2023/01/03 06:20:20;;;;;;;2.88;2.67;;;;;;;;;;5033174;28;20052;-90
2023/01/03 06:22:46;;;;;;;4.05;3.75;;;;;;;;;;5040360;28;20040;-90
2023/01/03 06:25:14;;;;;;;3.72;3.28;;;;;;;;;;5073142;28;20520;-90
2023/01/03 06:27:41;;;;;;;4.00;3.13;;;;;;;;;;5073388;28;20110;-90
2023/01/03 06:30:08;;;;;;;2.85;2.65;;;;;;;;;;5072775;28;20052;-90
2023/01/03 06:32:34;;;;;;;4.30;4.00;;;;;;;;;;5072632;28;20143;-89
2023/01/03 06:35:01;;;;;;;7.75;7.05;;;;;;;;;;5058171;28;20095;-89
2023/01/03 06:37:27;;;;;;;3.78;3.47;;;;;;;;;;5052964;28;20053;-90
2023/01/03 06:39:54;;;;;;;7.15;6.57;;;;;;;;;;5052882;28;20110;-90
2023/01/03 06:42:41;;;;;;;4.97;4.68;;;;;;;;;;5052820;28;20442;-89
2023/01/03 06:53:21;;;;;;;2.03;1.92;;;;;;;;;;5052416;28;19928;-89
2023/01/03 06:55:48;;;;;;;12.30;4.35;;;;;;;;;;5032525;28;20095;-90
2023/01/03 06:58:16;;;;;;;3.03;2.83;;;;;;;;;;5032817;28;20670;-89
2023/01/03 07:00:43;;;;;;;2.25;1.83;;;;;;;;;;5051673;28;20564;-89
2023/01/03 07:03:09;;;;;;;4.30;3.97;;;;;;;;;;5052532;28;20049;-89
2023/01/03 07:05:36;;;;;;;6.32;5.15;;;;;;;;;;5034821;28;20107;-89
2023/01/03 07:08:02;;;;;;;6.32;5.88;;;;;;;;;;5032523;28;20049;-89
2023/01/03 07:10:29;;;;;;;3.13;3.03;;;;;;;;;;5032420;28;20053;-89
2023/01/03 07:15:44;;;;;;;2.35;2.25;;;;;;;;;;5032235;28;20183;-88
2023/01/03 07:18:11;;;;;;;1.60;1.50;;;;;;;;;;5032068;28;20578;-88
2023/01/03 07:20:40;;;;;;;2.92;2.72;;;;;;;;;;5049292;28;20099;-88
2023/01/03 07:23:06;;;;;;;2.10;2.00;;;;;;;;;;5051988;28;20041;-88
2023/01/03 07:25:33;;;;;;;3.45;3.20;;;;;;;;;;5061345;28;20044;-87
2023/01/03 07:27:59;;;;;;;7.63;4.57;;;;;;;;;;5071992;28;20452;-88
2023/01/03 07:30:26;;;;;;;3.05;2.88;;;;;;;;;;5071771;28;20094;-88
2023/01/03 07:32:56;;;;;;;5.70;3.03;;;;;;;;;;5071706;28;20053;-88
2023/01/03 07:35:22;;;;;;;1.80;1.75;;;;;;;;;;5071396;28;20048;-88
2023/01/03 07:37:49;;;;;;;4.57;4.28;;;;;;;;;;5072276;28;20048;-88
2023/01/03 07:40:15;;;;;;;3.25;3.05;;;;;;;;;;5058979;28;20049;-88
2023/01/03 07:45:25;;;;;;;5.50;3.92;;;;;;;;;;5055731;28;20056;-88
2023/01/03 07:47:53;;;;;;;6.13;5.70;;;;;;;;;;5055701;28;20123;-88
2023/01/03 07:50:21;;;;;;;3.33;3.10;;;;;;;;;;5042410;28;20053;-88
2023/01/03 07:52:47;;;;;;;5.50;4.60;;;;;;;;;;5035444;28;20049;-88
2023/01/03 07:55:14;;;;;;;6.10;5.80;;;;;;;;;;5049743;28;20049;-88
2023/01/03 07:57:40;;;;;;;4.75;4.43;;;;;;;;;;5075594;28;20110;-88
2023/01/03 08:00:07;;;;;;;5.47;5.10;;;;;;;;;;5064492;28;20052;-88
2023/01/03 08:02:35;;;;;;;4.78;4.35;;;;;;;;;;5055389;28;20099;-88
2023/01/03 08:05:02;;;;;;;5.00;4.60;;;;;;;;;;5055338;28;20452;-89
2023/01/03 08:07:29;;;;;;;5.10;4.32;;;;;;;;;;5055784;28;20099;-89
2023/01/03 08:15:24;;;;;;;3.55;2.47;;;;;;;;;;5075286;28;20067;-89
2023/01/03 08:17:50;;;;;;;6.18;5.78;;;;;;;;;;5075325;28;20045;-88
2023/01/03 08:20:17;;;;;;;4.75;2.20;;;;;;;;;;5075417;28;20052;-89
2023/01/03 08:22:45;;;;;;;3.92;3.70;;;;;;;;;;5059159;28;20498;-89
2023/01/03 08:25:11;;;;;;;3.38;3.20;;;;;;;;;;5055334;28;20468;-89
2023/01/03 08:27:38;;;;;;;6.38;5.30;;;;;;;;;;5055283;28;20391;-89
2023/01/03 08:30:05;;;;;;;5.18;4.78;;;;;;;;;;5042925;28;20108;-89
2023/01/03 08:32:32;;;;;;;6.43;5.97;;;;;;;;;;5034890;28;20049;-89
2023/01/03 08:34:59;;;;;;;3.70;3.10;;;;;;;;;;5042679;28;20075;-89
2023/01/03 08:37:27;;;;;;;3.50;3.30;;;;;;;;;;5054984;28;20045;-89
2023/01/03 08:39:58;;;;;;;5.25;4.80;;;;;;;;;;5051936;28;20061;-88
2023/01/03 08:42:25;;;;;;;6.45;5.85;;;;;;;;;;5035055;28;20057;-89
2023/01/03 08:44:55;;;;;;;8.88;4.97;;;;;;;;;;5053425;28;20098;-88
2023/01/03 08:47:22;;;;;;;2.22;2.13;;;;;;;;;;5054892;28;20053;-89
2023/01/03 08:49:48;;;;;;;6.22;5.75;;;;;;;;;;5055811;28;20060;-90
2023/01/03 08:52:15;;;;;;;7.55;7.07;;;;;;;;;;5053443;28;20542;-89
2023/01/03 08:54:42;;;;;;;4.45;4.15;;;;;;;;;;5050449;28;20045;-89
2023/01/03 08:57:10;;;;;;;5.88;5.35;;;;;;;;;;5034831;28;20053;-90
2023/01/03 08:59:37;;;;;;;3.97;3.58;;;;;;;;;;5037497;28;20049;-89
2023/01/03 09:02:03;;;;;;;7.60;5.75;;;;;;;;;;5054329;28;20049;-89
2023/01/03 09:04:30;;;;;;;3.00;2.88;;;;;;;;;;5052237;28;20490;-90
2023/01/03 09:06:56;;;;;;;4.93;4.47;;;;;;;;;;5034772;28;20049;-90
2023/01/03 09:09:23;;;;;;;2.53;2.42;;;;;;;;;;5035297;28;20053;-90
2023/01/03 09:11:49;;;;;;;2.92;2.80;;;;;;;;;;5054093;28;20049;-90
2023/01/03 09:14:17;;;;;;;4.30;4.00;;;;;;;;;;5054378;28;20045;-90
2023/01/03 09:16:44;;;;;;;8.30;7.53;;;;;;;;;;5034147;28;20456;-89
2023/01/03 09:19:10;;;;;;;7.00;6.32;;;;;;;;;;5034067;28;20473;-90
2023/01/03 09:21:37;;;;;;;7.90;6.22;;;;;;;;;;5052622;28;20049;-89
2023/01/03 09:24:04;;;;;;;4.32;4.07;;;;;;;;;;5054302;28;20099;-89
2023/01/03 09:26:30;;;;;;;1.45;1.40;;;;;;;;;;5036543;28;20140;-89
2023/01/03 09:28:57;;;;;;;5.47;4.07;;;;;;;;;;5034404;28;20045;-89
2023/01/03 09:31:25;;;;;;;7.07;5.05;;;;;;;;;;5049951;28;20056;-89
2023/01/03 09:33:51;;;;;;;10.80;5.00;;;;;;;;;;5054075;28;20052;-90
2023/01/03 09:36:17;;;;;;;7.30;6.70;;;;;;;;;;5053578;28;20106;-89
2023/01/03 09:38:44;;;;;;;16.38;9.30;;;;;;;;;;5053835;28;20049;-89
2023/01/03 09:41:41;;;;;;;4.97;4.18;;;;;;;;;;5090709;27;20405;-90
2023/01/03 09:44:08;;;;;;;6.72;4.38;;;;;;;;;;5090867;28;20048;-90
2023/01/03 09:46:35;;;;;;;6.03;3.92;;;;;;;;;;5090519;28;20389;-91
2023/01/03 09:49:02;;;;;;;4.95;4.53;;;;;;;;;;5090562;28;20052;-91
2023/01/03 10:05:47;;;;;;;6.63;4.50;;;;;;;;;;5090128;28;20051;-90
2023/01/03 10:08:19;;;;;;;2.70;2.58;;;;;;;;;;5074610;28;20048;-90
2023/01/03 10:10:50;;;;;;;6.38;5.05;;;;;;;;;;5089854;28;20040;-90
2023/01/03 10:13:23;;;;;;;5.90;5.47;;;;;;;;;;5090194;28;20454;-90
2023/01/03 10:15:56;;;;;;;9.23;4.70;;;;;;;;;;5089768;28;20056;-91
2023/01/03 10:18:35;;;;;;;6.45;6.00;;;;;;;;;;5090071;28;20048;-90
2023/01/03 10:21:04;;;;;;;7.55;5.88;;;;;;;;;;5089515;28;20072;-91
2023/01/03 10:23:31;;;;;;;7.72;7.00;;;;;;;;;;5090036;28;20056;-90
2023/01/03 10:25:57;;;;;;;7.15;5.90;;;;;;;;;;5089963;28;20052;-91
2023/01/03 10:28:26;;;;;;;10.80;7.55;;;;;;;;;;5089899;28;20121;-90
2023/01/03 10:30:57;;;;;;;9.98;9.00;;;;;;;;;;5089820;28;20053;-91
2023/01/03 10:33:28;;;;;;;14.80;8.23;;;;;;;;;;5089516;28;20491;-90
2023/01/03 10:35:55;;;;;;;8.98;7.68;;;;;;;;;;5089279;28;20057;-90
2023/01/03 10:38:24;;;;;;;12.40;7.05;;;;;;;;;;5089508;28;20450;-89
2023/01/03 10:40:51;;;;;;;6.45;5.97;;;;;;;;;;5089568;28;20048;-89
2023/01/03 10:43:19;;;;;;;9.57;7.13;;;;;;;;;;5089576;28;20052;-90
2023/01/03 10:45:54;;;;;;;6.97;6.15;;;;;;;;;;5089112;28;20434;-89
2023/01/03 10:48:20;;;;;;;9.35;8.52;;;;;;;;;;5089652;28;20446;-89
2023/01/03 10:50:47;;;;;;;6.63;6.07;;;;;;;;;;5086962;28;20048;-90
2023/01/03 10:53:15;;;;;;;7.28;6.57;;;;;;;;;;5075501;28;20056;-89
2023/01/03 10:55:45;;;;;;;6.07;5.68;;;;;;;;;;5075758;28;20041;-90
2023/01/03 10:58:15;;;;;;;12.07;6.90;;;;;;;;;;5075593;28;20106;-90
2023/01/03 11:00:43;;;;;;;13.27;8.88;;;;;;;;;;5075535;28;20136;-90
2023/01/03 11:03:15;;;;;;;11.38;7.47;;;;;;;;;;5075494;28;20103;-90
2023/01/03 11:05:42;;;;;;;8.05;6.82;;;;;;;;;;5075541;28;20127;-90
2023/01/03 11:08:20;;;;;;;7.72;3.80;;;;;;;;;;5075431;28;20415;-90
2023/01/03 11:10:51;;;;;;;6.07;5.40;;;;;;;;;;5075237;28;20045;-90
2023/01/03 11:13:22;;;;;;;7.72;5.90;;;;;;;;;;5075704;28;20118;-89
2023/01/03 11:15:53;;;;;;;10.27;7.88;;;;;;;;;;5075270;28;20052;-90
2023/01/03 11:18:21;;;;;;;11.32;9.55;;;;;;;;;;5075315;28;20094;-90
2023/01/03 11:20:50;;;;;;;6.40;5.00;;;;;;;;;;5075061;28;20098;-89
2023/01/03 11:23:20;;;;;;;27.02;10.27;;;;;;;;;;5075065;28;20459;-91
2023/01/03 11:25:52;;;;;;;6.90;6.47;;;;;;;;;;5075426;28;20090;-91
2023/01/03 11:28:39;;;;;;;9.00;5.88;;;;;;;;;;5075430;28;20130;-90
2023/01/03 11:31:08;;;;;;;9.10;8.25;;;;;;;;;;5080582;28;20049;-90
2023/01/03 11:33:53;;;;;;;9.82;6.88;;;;;;;;;;5074943;28;20061;-90
2023/01/03 11:36:26;;;;;;;8.68;7.63;;;;;;;;;;5075298;28;20106;-90
2023/01/03 11:38:56;;;;;;;9.60;8.77;;;;;;;;;;5075212;28;20127;-90
2023/01/03 11:41:37;;;;;;;14.25;10.77;;;;;;;;;;5074665;28;20048;-90
2023/01/03 11:44:19;;;;;;;8.57;7.78;;;;;;;;;;5074729;28;20447;-90
2023/01/03 11:46:51;;;;;;;6.40;5.82;;;;;;;;;;5075090;28;20131;-90
2023/01/03 11:49:25;;;;;;;4.45;4.05;;;;;;;;;;5074646;28;20557;-91
2023/01/03 11:51:57;;;;;;;6.97;6.18;;;;;;;;;;5074387;28;20480;-91
2023/01/03 11:54:32;;;;;;;11.70;10.02;;;;;;;;;;5075042;28;20053;-90
2023/01/03 11:57:02;;;;;;;7.35;6.82;;;;;;;;;;5074451;28;20803;-91
2023/01/03 11:59:36;;;;;;;8.57;7.47;;;;;;;;;;5074453;28;20076;-90
2023/01/03 12:02:20;;;;;;;11.85;7.32;;;;;;;;;;5074700;28;20130;-90
2023/01/03 12:04:52;;;;;;;8.70;7.82;;;;;;;;;;5074161;28;20059;-91
2023/01/03 12:07:22;;;;;;;9.40;7.68;;;;;;;;;;5074634;28;20439;-91
2023/01/03 12:09:50;;;;;;;16.98;11.55;;;;;;;;;;5074705;28;20117;-91
2023/01/03 12:12:29;;;;;;;11.57;10.50;;;;;;;;;;5074582;28;20048;-90
2023/01/03 12:14:58;;;;;;;14.70;10.75;;;;;;;;;;5073832;28;20135;-90
2023/01/03 12:17:29;;;;;;;13.10;11.77;;;;;;;;;;5074002;28;20714;-90
2023/01/03 12:19:58;;;;;;;10.48;9.57;;;;;;;;;;5074149;28;20094;-90
2023/01/03 12:22:27;;;;;;;9.77;8.85;;;;;;;;;;5074267;28;20078;-90
2023/01/03 12:24:56;;;;;;;6.82;6.43;;;;;;;;;;5074045;28;20084;-90
2023/01/03 12:27:28;;;;;;;14.20;12.55;;;;;;;;;;5073787;28;20070;-90
2023/01/03 12:29:58;;;;;;;14.07;9.98;;;;;;;;;;5073602;28;20052;-90
2023/01/03 12:32:27;;;;;;;9.30;8.45;;;;;;;;;;5073966;28;20147;-90
2023/01/03 12:35:07;;;;;;;9.60;8.95;;;;;;;;;;5073663;28;20736;-90
2023/01/03 12:37:36;;;;;;;9.13;7.68;;;;;;;;;;5073751;28;20078;-90
2023/01/03 12:40:07;;;;;;;15.05;9.57;;;;;;;;;;5073693;28;20064;-90
2023/01/03 12:42:38;;;;;;;10.20;9.30;;;;;;;;;;5073808;28;20052;-90
2023/01/03 12:45:13;;;;;;;16.40;11.93;;;;;;;;;;5073636;28;20045;-90
2023/01/03 12:47:42;;;;;;;8.85;8.20;;;;;;;;;;5073687;28;20056;-90
2023/01/03 12:50:14;;;;;;;7.15;6.47;;;;;;;;;;5073460;28;20451;-90
2023/01/03 12:52:43;;;;;;;9.70;8.77;;;;;;;;;;5073524;28;20049;-90
2023/01/03 12:55:17;;;;;;;6.38;5.97;;;;;;;;;;5073800;28;20052;-90
2023/01/03 12:57:56;;;;;;;14.55;13.15;;;;;;;;;;5073244;28;20053;-90
2023/01/03 13:00:41;;;;;;;11.50;10.43;;;;;;;;;;5073298;28;20074;-90
2023/01/03 13:03:15;;;;;;;16.95;11.73;;;;;;;;;;5073224;28;20496;-90
2023/01/03 13:05:43;;;;;;;11.18;10.05;;;;;;;;;;5073301;28;20446;-91
2023/01/03 13:08:15;;;;;;;15.15;10.93;;;;;;;;;;5073183;28;20057;-90
2023/01/03 13:10:43;;;;;;;11.52;10.57;;;;;;;;;;5073166;28;20504;-90
2023/01/03 13:13:14;;;;;;;11.70;9.25;;;;;;;;;;5073195;28;20048;-91
2023/01/03 13:15:40;;;;;;;10.73;9.75;;;;;;;;;;5072962;28;20106;-91
2023/01/03 13:18:17;;;;;;;9.93;8.75;;;;;;;;;;5073376;28;20142;-91
2023/01/03 13:20:46;;;;;;;12.30;11.27;;;;;;;;;;5073372;28;20040;-90
2023/01/03 13:23:27;;;;;;;16.98;8.60;;;;;;;;;;5073181;28;20424;-90
2023/01/03 13:26:09;;;;;;;8.18;6.85;;;;;;;;;;5070487;28;20045;-90
2023/01/03 13:28:37;;;;;;;16.55;15.25;;;;;;;;;;5052417;28;20413;-90
2023/01/03 13:31:22;;;;;;;9.90;9.00;;;;;;;;;;5052810;28;20095;-90
2023/01/03 13:33:53;;;;;;;8.68;7.97;;;;;;;;;;5053130;28;20049;-89
2023/01/03 13:36:20;;;;;;;11.85;9.82;;;;;;;;;;5052696;28;20045;-90
2023/01/03 13:38:47;;;;;;;17.75;9.63;;;;;;;;;;5053000;28;20052;-90
2023/01/03 13:41:29;;;;;;;8.43;7.60;;;;;;;;;;5052468;28;20107;-91
2023/01/03 13:44:06;;;;;;;9.07;8.27;;;;;;;;;;5053068;28;20103;-90
2023/01/03 13:46:33;;;;;;;16.83;11.80;;;;;;;;;;5053051;28;20463;-91
2023/01/03 13:49:01;;;;;;;12.23;10.00;;;;;;;;;;5053100;28;20053;-90
2023/01/03 13:51:35;;;;;;;10.05;9.07;;;;;;;;;;5052505;28;20045;-90
2023/01/03 13:54:04;;;;;;;8.68;8.07;;;;;;;;;;5052935;28;20049;-90
2023/01/03 13:56:31;;;;;;;6.60;6.07;;;;;;;;;;5052656;28;20064;-90
2023/01/03 13:59:12;;;;;;;5.93;5.38;;;;;;;;;;5052562;28;20102;-90
2023/01/03 14:01:50;;;;;;;7.60;5.90;;;;;;;;;;5052562;28;20546;-90
2023/01/03 14:04:33;;;;;;;5.25;4.70;;;;;;;;;;5052806;28;20053;-90
2023/01/03 14:07:15;;;;;;;7.50;4.15;;;;;;;;;;5052369;28;20562;-90
2023/01/03 14:09:52;;;;;;;5.00;4.60;;;;;;;;;;5051998;28;20049;-90
2023/01/03 14:12:31;;;;;;;4.50;3.92;;;;;;;;;;5052404;28;20045;-90
2023/01/03 14:14:59;;;;;;;8.02;7.32;;;;;;;;;;5052389;28;20052;-89
2023/01/03 14:17:27;;;;;;;8.65;6.70;;;;;;;;;;5052281;28;20049;-90
2023/01/03 14:19:55;;;;;;;6.03;5.20;;;;;;;;;;5052529;28;20055;-90
2023/01/03 14:22:22;;;;;;;5.15;4.78;;;;;;;;;;5052008;28;20538;-90
2023/01/03 14:24:50;;;;;;;9.60;8.95;;;;;;;;;;5052325;28;20455;-90
2023/01/03 14:27:18;;;;;;;8.90;8.18;;;;;;;;;;5054048;28;20049;-90
2023/01/03 14:29:48;;;;;;;9.43;5.85;;;;;;;;;;5056321;28;20118;-90
2023/01/03 14:32:20;;;;;;;7.28;4.13;;;;;;;;;;5056334;28;20106;-90
2023/01/03 14:34:47;;;;;;;6.43;5.93;;;;;;;;;;5055966;28;20099;-90
2023/01/03 14:37:14;;;;;;;5.88;4.55;;;;;;;;;;5056242;28;20045;-91
2023/01/03 14:39:51;;;;;;;5.57;5.07;;;;;;;;;;5055925;28;20459;-90
2023/01/03 14:42:17;;;;;;;9.10;8.25;;;;;;;;;;5055897;28;20467;-90
2023/01/03 14:44:49;;;;;;;5.88;5.47;;;;;;;;;;5056087;28;20053;-89
2023/01/03 14:47:16;;;;;;;6.20;4.95;;;;;;;;;;5056038;28;20099;-91
2023/01/03 14:49:45;;;;;;;4.70;4.30;;;;;;;;;;5058117;28;20119;-90
2023/01/03 14:52:16;;;;;;;7.47;6.45;;;;;;;;;;5056114;28;20037;-90
2023/01/03 14:54:44;;;;;;;7.95;5.65;;;;;;;;;;5056128;28;20106;-90
2023/01/03 14:57:15;;;;;;;5.22;4.80;;;;;;;;;;5055698;28;20499;-90
2023/01/03 14:59:42;;;;;;;6.35;5.85;;;;;;;;;;5056185;28;20098;-89
2023/01/03 15:02:10;;;;;;;7.35;6.00;;;;;;;;;;5055448;28;20041;-89
2023/01/03 15:04:41;;;;;;;5.35;4.85;;;;;;;;;;5055902;28;20052;-90
2023/01/03 15:07:25;;;;;;;7.65;6.95;;;;;;;;;;5055308;28;20041;-90
2023/01/03 15:10:01;;;;;;;6.07;5.63;;;;;;;;;;5055611;28;20500;-90
2023/01/03 15:12:28;;;;;;;5.72;4.50;;;;;;;;;;5055170;28;20090;-91
2023/01/03 15:14:54;;;;;;;6.40;4.28;;;;;;;;;;5055933;28;20044;-90
2023/01/03 15:17:24;;;;;;;6.90;6.30;;;;;;;;;;5055407;28;20582;-89
2023/01/03 15:19:54;;;;;;;7.30;5.30;;;;;;;;;;5055516;28;20056;-89
2023/01/03 15:22:22;;;;;;;8.23;6.90;;;;;;;;;;5055056;28;20118;-89
2023/01/03 15:24:50;;;;;;;8.88;6.43;;;;;;;;;;5055406;28;20049;-90
2023/01/03 15:27:40;;;;;;;16.00;8.15;;;;;;;;;;5055201;28;20114;-90
2023/01/03 15:30:15;;;;;;;7.47;6.88;;;;;;;;;;5055082;28;20099;-90
2023/01/03 15:32:46;;;;;;;9.68;8.70;;;;;;;;;;5055328;28;20126;-89
2023/01/03 15:35:18;;;;;;;8.32;7.55;;;;;;;;;;5054974;28;20049;-90
2023/01/03 15:37:46;;;;;;;9.00;8.10;;;;;;;;;;5054841;28;20574;-89
2023/01/03 15:40:13;;;;;;;6.95;5.93;;;;;;;;;;5055410;28;20045;-89
2023/01/03 15:45:26;;;;;;;7.75;5.75;;;;;;;;;;5054778;28;20055;-90
2023/01/03 15:47:54;;;;;;;8.32;6.68;;;;;;;;;;5054598;28;20095;-90
2023/01/03 15:50:21;;;;;;;5.78;4.47;;;;;;;;;;5054842;28;20140;-89
2023/01/03 15:52:49;;;;;;;7.03;6.38;;;;;;;;;;5054531;28;20492;-90
2023/01/03 15:55:16;;;;;;;5.30;4.53;;;;;;;;;;5054779;28;20099;-90
2023/01/03 15:57:44;;;;;;;7.25;6.47;;;;;;;;;;5054487;28;20048;-89
2023/01/03 16:00:11;;;;;;;4.45;4.13;;;;;;;;;;5054470;28;20053;-89